Time;durP1;ratioP1;P1;durP2;ratioP2;P2;SDS_P1;SDS_P2;PMS_P1;PMS_P2;Temp;Humidity;BMP_temperature;BMP_pressure;BME280_temperature;BME280_humidity;BME280_pressure;Samples;Min_cycle;Max_cycle;Signal;HPM_P1;HPM_P2
2023/02/11 00:00:18;;;;;;;29.17;17.47;;;;;;;-0.85;89.55;151154.19;5066835;28;20480;-76
2023/02/11 00:02:45;;;;;;;27.93;19.70;;;;;;;-0.88;89.14;151146.50;5063395;28;20536;-76
2023/02/11 00:05:12;;;;;;;32.10;19.97;;;;;;;-0.89;88.77;151143.91;5026337;28;20600;-76
2023/02/11 00:07:38;;;;;;;29.77;19.00;;;;;;;-0.91;89.37;151138.78;5062243;28;20444;-75
2023/02/11 00:10:06;;;;;;;28.90;18.93;;;;;;;-0.91;88.94;151140.09;5033093;28;20956;-76
2023/02/11 00:12:33;;;;;;;28.00;19.80;;;;;;;-0.91;90.18;151138.78;5022388;28;20520;-75
2023/02/11 00:15:00;;;;;;;32.30;21.87;;;;;;;-0.90;89.81;151142.63;5027523;28;20448;-75
2023/02/11 00:17:28;;;;;;;32.20;19.37;;;;;;;-0.92;89.21;151137.50;5031700;28;20530;-76
2023/02/11 00:19:54;;;;;;;29.80;20.03;;;;;;;-0.94;89.41;151131.09;5032946;28;20486;-75
2023/02/11 00:22:21;;;;;;;30.07;18.87;;;;;;;-0.95;89.26;151128.50;5025522;28;20455;-75
2023/02/11 00:24:48;;;;;;;27.73;19.07;;;;;;;-0.95;89.38;151128.50;5022915;28;20479;-76
2023/02/11 00:27:15;;;;;;;32.07;20.50;;;;;;;-0.93;89.91;151134.97;5031092;28;20974;-76
2023/02/11 00:29:41;;;;;;;34.47;20.20;;;;;;;-0.91;89.33;151140.09;5031045;28;20787;-75
2023/02/11 00:32:08;;;;;;;32.33;18.63;;;;;;;-0.92;89.23;151136.22;5027356;28;20529;-75
2023/02/11 00:34:36;;;;;;;28.83;18.40;;;;;;;-0.94;90.15;151131.09;5030447;28;20803;-76
2023/02/11 00:37:03;;;;;;;32.23;18.40;;;;;;;-0.98;89.54;151122.09;5030261;28;20529;-76
2023/02/11 00:39:30;;;;;;;32.20;21.77;;;;;;;-1.01;89.98;151113.16;5029395;28;20787;-75
2023/02/11 00:41:57;;;;;;;23.43;18.90;;;;;;;-1.06;90.04;151100.34;5042685;28;20537;-75
2023/02/11 00:44:23;;;;;;;26.20;18.70;;;;;;;-1.10;90.01;151090.06;5056433;28;20474;-75
2023/02/11 00:46:50;;;;;;;27.73;19.27;;;;;;;-1.12;90.18;151084.97;5030906;28;20497;-75
2023/02/11 00:49:17;;;;;;;29.83;19.27;;;;;;;-1.15;90.86;151077.25;5043085;28;21049;-75
2023/02/11 00:51:45;;;;;;;32.57;20.43;;;;;;;-1.14;90.93;151079.84;5045581;28;20504;-75
2023/02/11 00:54:12;;;;;;;30.93;19.27;;;;;;;-1.22;91.72;151060.63;5013565;28;21004;-76
2023/02/11 00:56:39;;;;;;;26.60;17.70;;;;;;;-1.24;91.38;151056.75;5031221;28;20513;-75
2023/02/11 00:59:05;;;;;;;25.77;19.30;;;;;;;-1.23;92.25;151059.34;5027975;28;20551;-75
2023/02/11 01:01:33;;;;;;;28.37;19.07;;;;;;;-1.20;91.26;151064.44;5029704;28;20961;-75
2023/02/11 01:04:00;;;;;;;33.00;20.20;;;;;;;-1.24;91.27;151056.75;5029374;28;20518;-75
2023/02/11 01:06:26;;;;;;;33.17;19.40;;;;;;;-1.24;91.12;151056.75;5028422;28;20489;-76
2023/02/11 01:08:54;;;;;;;31.73;19.67;;;;;;;-1.27;92.40;151049.06;5024760;28;20468;-75
2023/02/11 01:11:22;;;;;;;32.83;20.10;;;;;;;-1.32;92.17;151034.94;5013684;28;20526;-75
2023/02/11 01:13:50;;;;;;;28.90;19.77;;;;;;;-1.35;92.54;151028.53;5030029;28;20549;-75
2023/02/11 01:16:18;;;;;;;28.17;19.87;;;;;;;-1.39;93.35;151018.31;5027806;28;20551;-76
2023/02/11 01:18:45;;;;;;;28.17;20.00;;;;;;;-1.44;92.99;151005.50;5027761;28;20460;-76
2023/02/11 01:21:13;;;;;;;30.87;20.40;;;;;;;-1.46;92.89;151000.38;5030966;28;20455;-76
2023/02/11 01:23:40;;;;;;;29.57;19.60;;;;;;;-1.48;93.76;150995.22;5028798;28;20497;-76
2023/02/11 01:26:08;;;;;;;27.63;19.07;;;;;;;-1.45;93.75;151001.63;5027559;28;20467;-76
2023/02/11 01:28:35;;;;;;;28.20;19.47;;;;;;;-1.46;93.73;151000.38;5030344;28;20461;-76
2023/02/11 01:31:02;;;;;;;28.10;19.77;;;;;;;-1.46;93.00;151000.38;5030534;28;20547;-76
2023/02/11 01:33:29;;;;;;;33.87;19.37;;;;;;;-1.43;93.32;151008.03;5025568;28;20956;-76
2023/02/11 01:35:59;;;;;;;27.60;19.97;;;;;;;-1.39;93.21;151017.03;5008617;28;20490;-76
2023/02/11 01:38:28;;;;;;;29.07;19.37;;;;;;;-1.40;92.28;151015.72;5026209;28;20458;-76
2023/02/11 01:40:57;;;;;;;32.20;21.20;;;;;;;-1.41;92.57;151013.19;5030869;28;20884;-75
2023/02/11 01:43:27;;;;;;;30.53;19.17;;;;;;;-1.44;93.20;151004.22;5029303;28;20463;-75
2023/02/11 01:45:59;;;;;;;29.23;20.37;;;;;;;-1.44;92.33;151004.22;5026081;28;20981;-76
2023/02/11 01:48:29;;;;;;;27.13;19.13;;;;;;;-1.46;92.83;150999.09;5028951;28;20448;-76
2023/02/11 01:51:01;;;;;;;30.13;18.67;;;;;;;-1.50;92.46;150990.09;5029580;28;20959;-76
2023/02/11 01:59:15;;;;;;;29.63;20.43;;;;;;;-1.57;92.83;150972.19;4993349;28;20457;-76
2023/02/11 02:01:45;;;;;;;27.33;18.30;;;;;;;-1.59;93.20;150967.03;5009410;28;20452;-75
2023/02/11 02:04:13;;;;;;;31.37;20.97;;;;;;;-1.63;93.57;150956.78;5025248;28;20896;-75
2023/02/11 02:06:43;;;;;;;28.80;19.83;;;;;;;-1.63;94.28;150955.50;5012399;28;20439;-76
2023/02/11 02:09:15;;;;;;;30.30;19.87;;;;;;;-1.63;94.77;150956.78;5012347;28;20443;-76
2023/02/11 02:11:42;;;;;;;31.27;21.00;;;;;;;-1.65;94.11;150951.69;5023106;28;20597;-75
2023/02/11 02:14:10;;;;;;;35.90;22.90;;;;;;;-1.68;94.67;150942.69;5045763;28;20450;-76
2023/02/11 02:16:37;;;;;;;34.10;21.90;;;;;;;-1.70;94.36;150938.88;5011353;28;20455;-75
2023/02/11 02:19:27;;;;;;;30.23;20.10;;;;;;;-1.72;94.77;150932.47;5027928;28;20443;-75
2023/02/11 02:22:20;;;;;;;33.90;20.30;;;;;;;-1.70;95.06;150938.88;5025948;28;20860;-75
2023/02/11 02:24:59;;;;;;;30.57;20.00;;;;;;;-1.68;94.45;150943.97;5024651;28;20589;-76
2023/02/11 02:27:42;;;;;;;30.00;19.60;;;;;;;-1.68;94.09;150943.97;5028010;28;20457;-76
2023/02/11 02:30:29;;;;;;;26.33;17.80;;;;;;;-1.67;95.19;150946.56;5022943;28;20467;-75
2023/02/11 02:33:15;;;;;;;34.17;19.57;;;;;;;-1.60;94.24;150963.19;5024287;28;20945;-75
2023/02/11 02:35:47;;;;;;;27.33;19.80;;;;;;;-1.60;94.10;150963.19;5039539;28;20440;-76
2023/02/11 02:38:19;;;;;;;29.23;19.03;;;;;;;-1.59;94.43;150967.03;5026977;28;20547;-75
2023/02/11 02:40:50;;;;;;;29.50;19.10;;;;;;;-1.56;94.46;150973.47;5022599;28;20947;-75
2023/02/11 02:43:17;;;;;;;27.00;20.10;;;;;;;-1.53;94.50;150982.41;5026783;28;20458;-75
2023/02/11 02:45:43;;;;;;;28.10;19.87;;;;;;;-1.54;93.62;150979.88;5059201;28;20554;-76
2023/02/11 02:48:25;;;;;;;33.73;20.10;;;;;;;-1.56;94.40;150973.47;5028744;28;20443;-76
2023/02/11 02:50:57;;;;;;;25.40;18.33;;;;;;;-1.54;93.89;150979.88;5027355;28;20485;-76
2023/02/11 02:53:28;;;;;;;28.60;18.73;;;;;;;-1.54;94.59;150978.59;5060929;28;20815;-75
2023/02/11 02:56:00;;;;;;;30.03;18.67;;;;;;;-1.55;94.54;150977.28;5026330;28;20447;-76
2023/02/11 02:58:51;;;;;;;30.17;18.83;;;;;;;-1.55;94.18;150976.00;5027835;28;20711;-75
2023/02/11 03:01:25;;;;;;;29.67;19.17;;;;;;;-1.54;94.43;150978.59;5012666;28;20462;-75
2023/02/11 03:03:58;;;;;;;30.57;19.83;;;;;;;-1.51;94.76;150987.53;5021632;28;20821;-75
2023/02/11 03:06:30;;;;;;;26.23;17.60;;;;;;;-1.52;94.63;150985.00;5010428;28;20508;-76
2023/02/11 03:09:01;;;;;;;29.90;19.70;;;;;;;-1.50;94.46;150990.09;5044327;28;20528;-76
2023/02/11 03:11:28;;;;;;;31.53;20.03;;;;;;;-1.49;94.52;150991.41;5032946;28;20961;-76
2023/02/11 03:13:57;;;;;;;28.33;20.13;;;;;;;-1.50;94.30;150990.09;5027207;28;20502;-76
2023/02/11 03:16:26;;;;;;;27.20;18.73;;;;;;;-1.51;94.31;150987.53;5025050;28;20541;-76
2023/02/11 03:18:57;;;;;;;27.83;19.63;;;;;;;-1.50;94.37;150988.81;5042106;28;20514;-75
2023/02/11 03:21:24;;;;;;;30.70;20.00;;;;;;;-1.46;94.28;151000.38;5020551;28;20859;-76
2023/02/11 03:23:55;;;;;;;27.43;19.37;;;;;;;-1.45;93.93;151002.91;5007546;28;20533;-76
2023/02/11 03:26:25;;;;;;;28.60;18.80;;;;;;;-1.46;94.27;151000.38;5020005;28;20554;-76
2023/02/11 03:28:55;;;;;;;33.00;19.33;;;;;;;-1.44;94.31;151004.22;5030229;28;20448;-75
2023/02/11 03:31:27;;;;;;;29.47;19.10;;;;;;;-1.45;94.38;151002.91;5009396;28;20463;-76
2023/02/11 03:34:01;;;;;;;25.67;18.30;;;;;;;-1.46;94.03;151000.38;5053507;28;20482;-76
2023/02/11 03:36:32;;;;;;;27.47;18.70;;;;;;;-1.47;94.22;150997.81;5038287;28;20441;-75
2023/02/11 03:39:00;;;;;;;27.30;19.40;;;;;;;-1.43;94.04;151006.78;5027198;28;20561;-75
2023/02/11 03:41:27;;;;;;;28.60;18.57;;;;;;;-1.45;94.37;151002.91;5024365;28;20460;-76
2023/02/11 03:43:56;;;;;;;24.40;18.67;;;;;;;-1.42;94.28;151010.63;5025589;28;20937;-75
2023/02/11 03:46:30;;;;;;;26.83;18.70;;;;;;;-1.41;93.96;151011.91;5025452;28;20581;-76
2023/02/11 03:49:02;;;;;;;25.40;18.73;;;;;;;-1.42;94.50;151010.63;5029539;28;21001;-76
2023/02/11 03:51:29;;;;;;;28.50;17.60;;;;;;;-1.38;94.68;151020.84;5011198;28;20456;-75
2023/02/11 03:53:58;;;;;;;27.60;18.67;;;;;;;-1.35;93.62;151028.53;5025573;28;20465;-76
2023/02/11 03:56:27;;;;;;;28.47;19.03;;;;;;;-1.30;94.47;151041.34;5024426;28;20445;-76
2023/02/11 03:58:54;;;;;;;27.57;17.70;;;;;;;-1.28;93.94;151046.50;5027122;28;20453;-75
2023/02/11 04:01:21;;;;;;;27.37;18.43;;;;;;;-1.28;93.71;151046.50;5026754;28;20456;-76
2023/02/11 04:03:48;;;;;;;29.27;20.27;;;;;;;-1.30;94.55;151041.34;5026708;28;20486;-75
2023/02/11 04:06:16;;;;;;;27.77;18.60;;;;;;;-1.25;94.44;151054.22;5010687;28;20493;-75
2023/02/11 04:08:42;;;;;;;30.50;18.20;;;;;;;-1.22;94.28;151061.88;5024422;28;20483;-75
2023/02/11 04:11:09;;;;;;;23.87;18.10;;;;;;;-1.18;93.51;151069.56;5024794;28;20549;-75
2023/02/11 04:13:36;;;;;;;21.97;17.57;;;;;;;-1.18;94.37;151069.56;5010878;28;20452;-75
2023/02/11 04:16:03;;;;;;;27.63;17.90;;;;;;;-1.18;94.00;151070.84;5055199;28;20437;-75
2023/02/11 04:18:31;;;;;;;25.10;18.10;;;;;;;-1.22;94.16;151061.88;5026977;28;20463;-75
2023/02/11 04:20:58;;;;;;;26.17;18.30;;;;;;;-1.27;94.26;151049.06;5027109;28;20461;-75
2023/02/11 04:23:26;;;;;;;32.57;19.23;;;;;;;-1.27;94.46;151049.06;5027960;28;20620;-76
2023/02/11 04:25:53;;;;;;;28.07;18.53;;;;;;;-1.27;94.70;151049.06;5023798;28;20931;-75
2023/02/11 04:28:19;;;;;;;24.43;17.20;;;;;;;-1.26;94.90;151051.63;5057316;28;20460;-76
2023/02/11 04:30:46;;;;;;;24.87;18.40;;;;;;;-1.23;95.29;151059.34;5006241;28;20802;-76
2023/02/11 04:33:13;;;;;;;26.10;19.13;;;;;;;-1.20;95.45;151064.44;5028370;28;20475;-76
2023/02/11 04:35:39;;;;;;;25.60;17.80;;;;;;;-1.17;95.55;151072.13;5022384;28;20540;-75
2023/02/11 04:38:06;;;;;;;25.70;17.90;;;;;;;-1.14;95.05;151079.84;5041039;28;20550;-75
2023/02/11 04:40:34;;;;;;;27.87;18.87;;;;;;;-1.11;94.90;151087.53;5057352;28;21100;-75
2023/02/11 04:43:01;;;;;;;30.50;18.63;;;;;;;-1.09;95.10;151093.94;5040958;28;20493;-75
2023/02/11 04:45:27;;;;;;;27.27;18.47;;;;;;;-1.07;95.16;151097.78;5026128;28;20470;-75
2023/02/11 04:47:54;;;;;;;28.97;19.13;;;;;;;-1.09;95.98;151092.66;5028515;28;20459;-75
2023/02/11 04:50:21;;;;;;;23.47;18.07;;;;;;;-1.11;95.31;151087.53;5033950;28;20462;-75
2023/02/11 04:52:47;;;;;;;30.37;19.40;;;;;;;-1.10;96.09;151090.06;5023050;28;20451;-76
2023/02/11 04:55:14;;;;;;;28.43;19.80;;;;;;;-1.06;95.57;151101.59;5027766;28;20455;-76
2023/02/11 04:57:42;;;;;;;26.20;18.17;;;;;;;-1.08;95.93;151095.19;5026319;28;20503;-76
2023/02/11 05:00:10;;;;;;;28.00;20.20;;;;;;;-1.07;96.09;151097.78;5030473;28;20548;-76
2023/02/11 05:02:37;;;;;;;25.10;18.60;;;;;;;-1.03;96.08;151109.28;5062172;28;20520;-75
2023/02/11 05:05:04;;;;;;;27.93;18.50;;;;;;;-1.03;95.81;151108.06;5031370;28;20828;-76
2023/02/11 05:07:31;;;;;;;25.67;18.47;;;;;;;-1.03;95.75;151108.06;5061824;28;20498;-76
2023/02/11 05:09:58;;;;;;;26.10;20.20;;;;;;;-1.04;95.80;151105.47;5010668;28;20469;-76
2023/02/11 05:12:25;;;;;;;31.83;19.80;;;;;;;-1.05;95.91;151102.88;5026392;28;20496;-75
2023/02/11 05:14:53;;;;;;;30.93;20.00;;;;;;;-1.05;95.92;151102.88;5026356;28;20878;-76
2023/02/11 05:17:19;;;;;;;27.23;18.90;;;;;;;-1.06;97.00;151100.34;5025359;28;20449;-76
2023/02/11 05:19:46;;;;;;;28.23;20.67;;;;;;;-1.06;96.72;151100.34;5029504;28;20463;-76
2023/02/11 05:22:13;;;;;;;31.67;20.77;;;;;;;-1.07;97.47;151097.78;5054124;28;20961;-76
2023/02/11 05:24:40;;;;;;;30.70;20.90;;;;;;;-1.06;96.78;151100.34;5026779;28;20892;-76
2023/02/11 05:27:06;;;;;;;29.87;20.47;;;;;;;-1.05;96.79;151102.88;5024285;28;20478;-76
2023/02/11 05:29:33;;;;;;;27.90;20.50;;;;;;;-1.09;96.90;151092.66;5023592;28;20822;-76
2023/02/11 05:32:01;;;;;;;31.63;20.73;;;;;;;-1.09;96.38;151092.66;5020091;28;20460;-76
2023/02/11 05:34:28;;;;;;;30.47;21.00;;;;;;;-1.07;97.11;151097.78;5024129;28;20557;-76
2023/02/11 05:36:55;;;;;;;26.53;19.93;;;;;;;-1.13;97.71;151082.38;5055752;28;20545;-76
2023/02/11 05:39:21;;;;;;;29.73;21.07;;;;;;;-1.15;97.27;151077.25;5055840;28;20967;-76
2023/02/11 05:41:48;;;;;;;28.00;20.67;;;;;;;-1.16;97.60;151074.66;5022128;28;20455;-76
2023/02/11 05:44:14;;;;;;;24.97;20.50;;;;;;;-1.16;97.75;151074.66;5022473;28;20451;-75
2023/02/11 05:46:41;;;;;;;29.87;20.80;;;;;;;-1.16;97.57;151074.66;5053729;28;20475;-76
2023/02/11 05:49:09;;;;;;;28.07;21.00;;;;;;;-1.14;97.44;151079.84;5021500;28;20693;-76
2023/02/11 05:51:36;;;;;;;31.80;21.77;;;;;;;-1.12;98.20;151084.97;5026171;28;20535;-76
2023/02/11 05:54:03;;;;;;;28.77;19.67;;;;;;;-1.11;97.91;151088.78;5022975;28;20585;-76
2023/02/11 05:56:29;;;;;;;29.73;20.97;;;;;;;-1.10;97.64;151090.06;5026274;28;20491;-76
2023/02/11 05:58:58;;;;;;;29.50;20.83;;;;;;;-1.09;97.30;151092.66;5055693;28;20486;-75
2023/02/11 06:01:25;;;;;;;31.13;21.27;;;;;;;-1.06;97.70;151101.59;5018847;28;20897;-76
2023/02/11 06:03:52;;;;;;;31.07;20.67;;;;;;;-1.04;97.95;151105.47;5003955;28;20453;-76
2023/02/11 06:06:20;;;;;;;32.27;20.10;;;;;;;-1.01;97.61;151113.16;5002705;28;20575;-76
2023/02/11 06:08:46;;;;;;;28.00;20.63;;;;;;;-1.00;97.58;151117.00;5022282;28;20457;-76
2023/02/11 06:11:14;;;;;;;30.17;19.97;;;;;;;-0.97;97.95;151124.69;5017447;28;20862;-76
2023/02/11 06:13:41;;;;;;;27.70;20.27;;;;;;;-0.94;97.57;151131.09;5032371;28;20452;-75
2023/02/11 06:16:08;;;;;;;32.57;20.83;;;;;;;-0.92;97.29;151136.22;5023097;28;20449;-75
2023/02/11 06:18:34;;;;;;;27.90;19.20;;;;;;;-0.91;98.68;151140.09;5005038;28;20560;-76
2023/02/11 06:21:01;;;;;;;28.90;19.17;;;;;;;-0.88;97.52;151146.50;5017191;28;20455;-75
2023/02/11 06:23:29;;;;;;;26.77;17.43;;;;;;;-0.84;97.54;151156.72;5021975;28;21100;-75
2023/02/11 06:26:01;;;;;;;26.83;19.53;;;;;;;-0.80;97.80;151167.00;5017202;28;20472;-75
2023/02/11 06:28:30;;;;;;;23.70;17.37;;;;;;;-0.78;97.10;151173.44;5054378;28;20445;-76
2023/02/11 06:30:56;;;;;;;21.63;16.03;;;;;;;-0.73;97.72;151184.94;5022006;28;20444;-76
2023/02/11 06:33:23;;;;;;;28.00;18.73;;;;;;;-0.70;97.68;151192.66;5020828;28;20512;-76
2023/02/11 06:35:50;;;;;;;21.70;17.57;;;;;;;-0.67;97.51;151200.34;5025428;28;20551;-76
2023/02/11 06:38:17;;;;;;;21.53;16.27;;;;;;;-0.63;96.84;151210.59;5007716;28;20459;-75
2023/02/11 06:40:48;;;;;;;23.80;15.80;;;;;;;-0.58;97.56;151223.41;5015965;28;20471;-75
2023/02/11 06:43:15;;;;;;;21.17;16.00;;;;;;;-0.53;97.41;151236.22;5021240;28;20452;-75
2023/02/11 06:45:42;;;;;;;25.83;16.03;;;;;;;-0.51;96.78;151241.41;4998203;28;20778;-75
2023/02/11 06:48:09;;;;;;;21.00;15.50;;;;;;;-0.53;96.70;151236.22;5017415;28;20452;-75
2023/02/11 06:50:35;;;;;;;27.50;18.27;;;;;;;-0.51;97.69;151241.41;5024104;28;20448;-75
2023/02/11 06:53:02;;;;;;;25.33;17.27;;;;;;;-0.49;96.89;151246.53;5020232;28;20457;-75
2023/02/11 06:55:29;;;;;;;21.43;16.27;;;;;;;-0.49;97.16;151246.53;5020359;28;20819;-75
2023/02/11 06:57:57;;;;;;;23.90;15.97;;;;;;;-0.48;97.63;151249.09;5000922;28;20552;-75
2023/02/11 07:00:25;;;;;;;27.30;18.90;;;;;;;-0.47;97.14;151251.63;5021753;28;20442;-75
2023/02/11 07:02:52;;;;;;;23.90;18.00;;;;;;;-0.45;96.77;151255.50;5019626;28;20679;-75
2023/02/11 07:05:19;;;;;;;23.70;17.30;;;;;;;-0.43;97.34;151261.94;5018313;28;20570;-75
2023/02/11 07:07:46;;;;;;;20.80;16.07;;;;;;;-0.40;97.61;151268.34;5013956;28;20467;-76
2023/02/11 07:10:17;;;;;;;24.40;17.53;;;;;;;-0.41;97.36;151267.03;5039151;28;20453;-76
2023/02/11 07:12:44;;;;;;;27.70;18.23;;;;;;;-0.40;97.15;151268.34;5022965;28;20503;-76
2023/02/11 07:15:14;;;;;;;29.30;18.20;;;;;;;-0.39;97.34;151270.88;5021109;28;20818;-76
2023/02/11 07:17:41;;;;;;;27.23;19.60;;;;;;;-0.39;97.33;151270.88;5019549;28;20447;-76
2023/02/11 07:20:11;;;;;;;23.93;17.40;;;;;;;-0.33;96.82;151286.28;5018981;28;20455;-76
2023/02/11 07:22:37;;;;;;;26.47;17.83;;;;;;;-0.35;96.97;151282.44;5019753;28;20926;-76
2023/02/11 07:25:05;;;;;;;26.97;19.63;;;;;;;-0.31;97.08;151291.41;5017071;28;20461;-77
2023/02/11 07:27:32;;;;;;;30.47;20.43;;;;;;;-0.28;98.08;151300.41;5024818;28;20458;-76
2023/02/11 07:29:59;;;;;;;26.37;19.27;;;;;;;-0.29;97.90;151296.56;5023332;28;20467;-76
2023/02/11 07:32:27;;;;;;;27.70;19.10;;;;;;;-0.25;97.63;151308.09;5024257;28;20833;-76
2023/02/11 07:34:54;;;;;;;27.77;18.53;;;;;;;-0.19;97.67;151323.50;5007504;28;20452;-76
2023/02/11 07:37:21;;;;;;;29.90;19.70;;;;;;;-0.04;98.27;151361.97;5024806;28;20450;-76
2023/02/11 07:39:48;;;;;;;28.73;20.07;;;;;;;0.08;97.75;151390.22;5015209;28;20513;-76
2023/02/11 07:42:15;;;;;;;27.23;19.57;;;;;;;0.19;96.96;151419.72;5006967;28;20458;-76
2023/02/11 07:44:42;;;;;;;24.10;17.90;;;;;;;0.27;96.87;151438.97;5006617;28;20449;-76
2023/02/11 07:47:08;;;;;;;26.40;17.67;;;;;;;0.42;97.07;151477.50;5017211;28;20536;-76
2023/02/11 07:49:36;;;;;;;28.77;20.40;;;;;;;0.76;97.27;151563.50;5022458;28;20523;-76
2023/02/11 07:52:03;;;;;;;32.30;21.33;;;;;;;1.08;96.35;151647.00;5007088;28;20452;-76
2023/02/11 07:54:30;;;;;;;27.03;19.53;;;;;;;1.10;94.79;151652.13;5016331;28;20486;-76
2023/02/11 07:56:57;;;;;;;23.60;17.47;;;;;;;1.05;93.97;151639.28;5024310;28;20471;-76
2023/02/11 07:59:24;;;;;;;25.57;18.20;;;;;;;1.00;93.64;151626.44;5018492;28;20569;-76
2023/02/11 08:01:51;;;;;;;27.67;19.67;;;;;;;0.96;94.10;151616.16;5024105;28;20440;-76
2023/02/11 08:04:17;;;;;;;21.57;15.97;;;;;;;0.95;93.31;151612.31;5018175;28;20549;-77
2023/02/11 08:06:46;;;;;;;24.57;18.30;;;;;;;0.91;92.75;151603.31;5001636;28;20506;-76
2023/02/11 08:09:15;;;;;;;25.20;17.03;;;;;;;0.91;93.71;151603.31;5006191;28;20515;-75
2023/02/11 08:11:42;;;;;;;23.93;17.63;;;;;;;0.94;93.68;151611.03;5027389;28;20456;-75
2023/02/11 08:14:10;;;;;;;26.43;18.33;;;;;;;0.99;93.93;151622.56;5022555;28;20997;-75
2023/02/11 08:16:38;;;;;;;24.53;18.90;;;;;;;1.06;94.15;151641.81;5017601;28;20495;-75
2023/02/11 08:19:06;;;;;;;26.50;17.70;;;;;;;1.21;94.37;151680.41;5021866;28;20452;-74
2023/02/11 08:21:33;;;;;;;23.90;17.60;;;;;;;1.45;94.97;151740.78;5027392;28;20447;-75
2023/02/11 08:24:02;;;;;;;22.90;18.40;;;;;;;1.63;94.79;151785.72;5022124;28;20480;-75
2023/02/11 08:26:31;;;;;;;25.13;18.60;;;;;;;1.74;94.42;151814.00;5023671;28;20877;-75
2023/02/11 08:28:58;;;;;;;22.80;17.50;;;;;;;1.76;93.74;151820.44;5036392;28;20438;-75
2023/02/11 08:31:26;;;;;;;25.33;17.27;;;;;;;1.77;93.08;151821.72;5020267;28;20450;-75
2023/02/11 08:33:56;;;;;;;25.87;18.10;;;;;;;1.76;92.17;151819.13;5024489;28;20535;-75
2023/02/11 08:36:25;;;;;;;26.73;18.30;;;;;;;1.76;92.09;151820.44;5022238;28;20733;-75
2023/02/11 08:38:54;;;;;;;25.20;18.10;;;;;;;1.75;92.16;151816.56;5034381;28;20468;-76
2023/02/11 08:41:22;;;;;;;22.13;16.73;;;;;;;1.78;92.68;151824.25;5027843;28;20548;-75
2023/02/11 08:43:48;;;;;;;18.90;16.40;;;;;;;1.81;92.11;151832.00;5019927;28;20461;-75
2023/02/11 08:46:17;;;;;;;20.77;16.33;;;;;;;1.83;92.35;151837.13;5025389;28;20565;-77
2023/02/11 08:48:44;;;;;;;24.40;17.40;;;;;;;1.91;92.31;151857.69;5025037;28;20823;-75
2023/02/11 08:51:14;;;;;;;20.57;16.33;;;;;;;1.97;92.71;151871.81;5020599;28;20832;-76
2023/02/11 08:53:41;;;;;;;18.27;15.33;;;;;;;2.05;91.10;151893.69;5021107;28;20896;-75
2023/02/11 08:56:10;;;;;;;22.30;16.60;;;;;;;2.08;90.00;151900.13;5026233;28;20952;-75
2023/02/11 08:58:38;;;;;;;22.07;16.97;;;;;;;2.10;90.66;151906.53;5027857;28;20507;-75
2023/02/11 09:01:09;;;;;;;28.83;19.90;;;;;;;2.23;91.04;151939.97;5026722;28;20458;-75
2023/02/11 09:03:36;;;;;;;22.77;17.27;;;;;;;2.25;89.91;151943.84;5023217;28;20461;-75
2023/02/11 09:06:05;;;;;;;21.23;16.70;;;;;;;2.37;90.87;151976.00;5024410;28;20468;-75
2023/02/11 09:08:34;;;;;;;23.80;17.30;;;;;;;2.46;89.85;151999.09;5022192;28;20487;-76
2023/02/11 09:11:00;;;;;;;24.53;17.60;;;;;;;2.51;89.78;152010.72;5026017;28;20802;-75
2023/02/11 09:13:27;;;;;;;24.93;18.33;;;;;;;2.57;88.71;152026.13;5022551;28;20490;-75
2023/02/11 09:15:55;;;;;;;24.90;18.57;;;;;;;2.60;88.95;152033.84;5022470;28;21028;-75
2023/02/11 09:18:22;;;;;;;26.90;20.57;;;;;;;2.65;87.96;152046.69;5023070;28;20457;-78
2023/02/11 09:20:48;;;;;;;20.00;16.77;;;;;;;2.64;88.19;152042.84;5025032;28;20489;-78
2023/02/11 09:23:15;;;;;;;26.10;20.50;;;;;;;2.69;87.42;152057.00;5019345;28;20797;-75
2023/02/11 09:25:42;;;;;;;26.20;19.57;;;;;;;2.79;87.85;152081.44;5025395;28;20450;-75
2023/02/11 09:28:10;;;;;;;26.07;19.40;;;;;;;2.86;86.79;152099.47;5015137;28;20478;-77
2023/02/11 09:30:37;;;;;;;24.93;20.03;;;;;;;2.83;87.04;152093.00;5017854;28;20497;-75
2023/02/11 09:33:05;;;;;;;32.80;19.50;;;;;;;2.82;87.32;152089.16;5024428;28;20469;-76
2023/02/11 09:35:33;;;;;;;26.13;19.63;;;;;;;2.84;88.09;152095.59;5021954;28;20546;-76
2023/02/11 09:38:00;;;;;;;25.80;19.40;;;;;;;2.93;87.33;152118.75;5024703;28;20549;-76
2023/02/11 09:40:26;;;;;;;27.20;19.13;;;;;;;2.96;87.54;152126.50;5022752;28;20486;-76
2023/02/11 09:42:57;;;;;;;25.03;20.33;;;;;;;2.98;86.86;152130.31;5026066;28;20520;-76
2023/02/11 09:45:25;;;;;;;27.63;19.93;;;;;;;3.02;86.63;152140.59;5026683;28;20447;-76
2023/02/11 09:47:55;;;;;;;28.40;20.10;;;;;;;3.02;86.17;152141.91;5027518;28;20563;-76
2023/02/11 09:50:28;;;;;;;25.30;18.90;;;;;;;3.04;87.72;152145.78;5024111;28;20542;-75
2023/02/11 09:52:58;;;;;;;29.10;20.83;;;;;;;3.03;88.77;152143.19;5024083;28;20454;-76
2023/02/11 09:55:29;;;;;;;29.93;22.90;;;;;;;3.03;87.39;152144.47;5026123;28;20462;-76
2023/02/11 09:57:56;;;;;;;27.57;22.50;;;;;;;3.06;88.86;152150.91;5023008;28;20504;-76
2023/02/11 10:00:25;;;;;;;29.37;22.40;;;;;;;3.07;88.60;152153.50;5036193;28;20494;-75
2023/02/11 10:03:25;;;;;;;25.17;21.27;;;;;;;3.17;88.44;152177.94;5033885;28;20447;-76
2023/02/11 10:06:12;;;;;;;30.13;19.43;;;;;;;3.25;88.15;152199.81;5033483;28;20577;-76
2023/02/11 10:08:45;;;;;;;27.47;20.30;;;;;;;3.29;87.48;152208.81;5020489;28;21081;-75
2023/02/11 10:11:17;;;;;;;23.27;19.43;;;;;;;3.42;87.98;152243.56;5016231;28;20501;-76
2023/02/11 10:13:50;;;;;;;23.20;18.40;;;;;;;3.54;86.85;152273.19;5019294;28;20560;-76
2023/02/11 10:16:31;;;;;;;22.10;17.60;;;;;;;3.60;86.80;152288.66;5002209;28;20469;-76
2023/02/11 10:19:12;;;;;;;21.00;17.00;;;;;;;3.64;86.63;152300.22;5022270;28;20536;-76
2023/02/11 10:21:50;;;;;;;23.50;17.93;;;;;;;3.65;87.26;152302.75;5019459;28;20545;-75
2023/02/11 10:24:17;;;;;;;22.73;17.27;;;;;;;3.74;87.20;152324.66;5023890;28;20975;-76
2023/02/11 10:26:44;;;;;;;21.97;16.87;;;;;;;3.72;86.81;152319.50;5017565;28;22698;-76
2023/02/11 10:29:17;;;;;;;21.50;17.60;;;;;;;3.74;86.18;152323.34;5022148;28;20452;-76
2023/02/11 10:31:45;;;;;;;22.37;16.87;;;;;;;3.78;86.11;152333.69;5025002;28;21017;-76
2023/02/11 10:34:13;;;;;;;22.20;17.00;;;;;;;3.82;85.36;152343.97;5035252;28;20512;-75
2023/02/11 10:36:43;;;;;;;17.47;13.77;;;;;;;3.95;85.16;152377.44;5033115;28;20448;-76
2023/02/11 10:39:12;;;;;;;18.67;14.70;;;;;;;3.94;85.18;152374.88;5036216;28;20470;-76
2023/02/11 10:41:42;;;;;;;18.00;15.30;;;;;;;3.93;85.36;152372.28;5014989;28;21014;-76
2023/02/11 10:44:19;;;;;;;22.03;16.40;;;;;;;4.00;85.44;152390.31;5019423;28;20829;-76
2023/02/11 10:46:46;;;;;;;18.87;14.63;;;;;;;4.04;84.51;152400.63;5019117;28;20447;-76
2023/02/11 10:49:33;;;;;;;18.30;14.67;;;;;;;4.10;84.82;152417.34;5025445;28;20454;-76
2023/02/11 10:52:14;;;;;;;16.27;12.30;;;;;;;4.08;84.79;152412.22;5030615;28;20565;-76
2023/02/11 10:54:41;;;;;;;15.67;13.40;;;;;;;4.16;84.50;152431.53;5036172;28;20974;-76
2023/02/11 10:57:18;;;;;;;16.87;13.20;;;;;;;4.20;83.95;152441.84;5020475;28;20822;-76
2023/02/11 10:59:45;;;;;;;17.03;12.10;;;;;;;4.16;83.81;152432.81;5010182;28;20797;-76
2023/02/11 11:02:21;;;;;;;19.43;13.20;;;;;;;4.39;82.89;152490.81;5009067;28;20909;-76
2023/02/11 11:04:48;;;;;;;17.23;13.50;;;;;;;4.83;80.78;152604.16;5031970;28;20477;-76
2023/02/11 11:07:20;;;;;;;14.97;12.00;;;;;;;4.83;80.56;152602.88;5022642;28;20997;-76
2023/02/11 11:09:51;;;;;;;20.60;12.97;;;;;;;4.83;80.71;152604.16;5016899;28;20529;-76
2023/02/11 11:12:33;;;;;;;17.97;13.70;;;;;;;4.92;79.88;152627.34;5022806;28;20562;-76
2023/02/11 11:15:03;;;;;;;15.37;12.80;;;;;;;5.02;79.13;152650.56;5018086;28;20934;-76
2023/02/11 11:17:29;;;;;;;14.90;11.70;;;;;;;4.98;78.62;152641.53;5023574;28;20457;-76
2023/02/11 11:20:15;;;;;;;15.33;11.43;;;;;;;5.08;78.47;152667.34;5020295;28;20509;-76
2023/02/11 11:22:44;;;;;;;17.20;14.70;;;;;;;5.26;77.86;152712.44;5027654;28;20890;-76
2023/02/11 11:25:25;;;;;;;22.93;19.50;;;;;;;5.39;77.21;152745.94;5020222;28;20454;-76